Latest Weather Observations for Young

IDN60801

Issued at 6:32 am EST Monday 16 July 2018 (issued every 10 minutes, with the page automatically refreshed every 10 minutes)

About weather observations | Map of weather stations | Latest weather observations for NSW | Other Formats
Station Details ID: 073138 Name: YOUNG AIRPORT Lat: -34.25 Lon: 148.25 Height: 379.6 m
Data from the previous 72 hours. | See also: Recent months at Young
Date/Time
EST
Temp
°C
App
Temp
°C
Dew
Point
°C
Rel
Hum
%
Delta-T
°C
Wind Press
QNH
hPa
Press
MSL
hPa
Rain since
9am
mm
Dir  Spd
km/h
Gust
km/h
Spd
kts
Gust
kts
16/06:30am -5.0 -8.8 -5.1 99 -0.2 S 6 9 3 5 1014.3 1015.0 0.0
16/06:00am -5.2 -9.0 -5.3 99 -0.2 S 6 7 3 4 1014.2 1014.9 0.0
16/05:30am -5.3 -9.3 -5.4 99 -0.2 SW 7 9 4 5 1014.0 1014.7 0.0
16/05:00am -5.1 -9.1 -5.2 99 -0.2 S 7 9 4 5 1014.0 1014.7 0.0
16/04:30am -4.9 -8.9 -5.2 98 -0.1 S 7 9 4 5 1014.2 1014.9 0.0
16/04:00am -4.3 -8.2 -4.4 99 -0.1 SSW 7 7 4 4 1014.2 1014.9 0.0
16/03:30am -4.6 -8.3 -4.7 99 -0.2 SSW 6 7 3 4 1014.4 1015.1 0.0
16/03:00am -4.3 -8.0 -4.4 99 -0.1 S 6 7 3 4 1015.0 1015.7 0.0
16/02:30am -4.0 -7.8 -4.1 99 -0.1 SSW 7 9 4 5 1015.0 1015.7 0.0
16/02:00am -4.3 -8.2 -4.4 99 -0.1 SSW 7 7 4 4 1015.1 1015.8 0.0
16/01:30am -4.0 -7.7 -4.1 99 -0.1 S 6 7 3 4 1015.3 1016.0 0.0
16/01:00am -3.4 -7.2 -3.5 99 -0.1 S 7 9 4 5 1015.1 1015.8 0.0
16/12:30am -3.5 -7.1 -3.6 99 -0.1 SSW 6 7 3 4 1015.3 1016.0 0.0
16/12:00am -3.6 -7.4 -3.7 99 -0.1 S 7 9 4 5 1015.4 1016.1 0.0
 
Date/Time
EST
Temp
°C
App
Temp
°C
Dew
Point
°C
Rel
Hum
%
Delta-T
°C
Wind Press
QNH
hPa
Press
MSL
hPa
Rain since
9am
mm
Dir  Spd
km/h
Gust
km/h
Spd
kts
Gust
kts
15/11:30pm -2.8 -6.5 -2.9 99 -0.1 S 7 7 4 4 1015.4 1016.1 0.0
15/11:00pm -3.3 -7.4 -3.4 99 -0.1 S 9 9 5 5 1015.3 1016.0 0.0
15/10:30pm -2.7 -6.2 -2.8 99 -0.1 SSW 6 7 3 4 1015.2 1015.9 0.0
15/10:00pm -2.4 -6.1 -2.5 99 -0.1 SW 7 9 4 5 1015.1 1015.8 0.0
15/09:30pm -2.4 -6.1 -2.5 99 -0.1 S 7 9 4 5 1015.4 1016.1 0.0
15/09:00pm -2.3 -5.7 -2.4 99 -0.1 SSW 6 6 3 3 1015.2 1015.9 0.0
15/08:30pm -1.0 -4.5 -1.1 99 0.0 SSW 7 9 4 5 1015.2 1015.9 0.0
15/08:00pm -1.0 -4.5 -1.1 99 0.0 S 7 9 4 5 1015.2 1015.9 0.0
15/07:30pm -0.5 -3.9 -0.8 98 0.1 SSW 7 9 4 5 1015.5 1016.2 0.0
15/07:00pm 0.5 -2.7 -0.4 94 0.3 S 6 7 3 4 1015.5 1016.2 0.0
15/06:30pm 0.9 -2.3 -0.2 92 0.4 S 6 7 3 4 1015.2 1015.9 0.0
15/06:00pm 2.0 -0.5 -0.7 82 1.0 SW 2 7 1 4 1015.3 1016.0 0.0
15/05:30pm 3.8 1.0 -0.4 74 1.6 W 4 6 2 3 1015.1 1015.8 0.0
15/05:00pm 7.9 4.9 0.6 60 3.0 SW 6 7 3 4 1015.0 1015.7 0.0
15/04:30pm 9.5 6.6 1.2 56 3.5 W 6 11 3 6 1015.2 1015.9 0.0
15/04:00pm 9.7 5.8 1.4 56 3.5 NW 11 15 6 8 1015.3 1016.0 0.0
15/03:30pm 9.8 5.9 1.2 55 3.6 NW 11 15 6 8 1015.5 1016.2 0.0
15/03:00pm 10.2 6.3 1.3 54 3.8 NNW 11 15 6 8 1015.5 1016.2 0.0
15/02:30pm 10.2 6.8 1.6 55 3.7 WNW 9 15 5 8 1015.5 1016.2 0.0
15/02:00pm 9.4 6.0 1.6 58 3.3 SW 9 13 5 7 1015.6 1016.3 0.0
15/01:30pm 9.5 6.0 1.2 56 3.5 NW 9 17 5 9 1016.2 1016.9 0.0
15/01:00pm 9.5 5.3 1.7 58 3.3 NW 13 19 7 10 1016.7 1017.5 0.0
15/12:30pm 8.3 4.4 1.2 61 3.0 NW 11 17 6 9 1017.0 1017.8 0.0
15/12:00pm 9.9 7.3 3.2 63 3.0 N 6 11 3 6 1017.7 1018.4 0.0
15/11:30am 8.6 5.3 2.4 65 2.7 NNW 9 11 5 6 1018.0 1018.7 0.0
15/11:00am 7.6 5.1 4.6 81 1.3 NNE 7 11 4 6 1018.5 1019.2 0.0
15/10:30am 5.7 3.1 4.2 90 0.7 NNE 7 9 4 5 1018.9 1019.7 0.0
15/10:00am 2.4 0.8 2.4 100 0.0 CALM 0 0 0 0 1019.1 1019.9 0.0
15/09:30am 0.5 -2.5 0.5 100 0.0 S 6 7 3 4 1019.1 1019.9 0.0
15/09:26am 0.4 -2.7 0.4 100 0.0 S 6 7 3 4 1019.1 1019.9 0.0
15/09:24am 0.1 -2.6 0.1 100 0.0 S 4 7 2 4 1019.1 1019.9 0.0
15/09:00am -1.5 -5.0 -1.6 99 0.0 SSW 7 9 4 5 1019.0 1019.8 0.4
15/08:30am -2.8 -6.5 -2.9 99 -0.1 S 7 7 4 4 1019.0 1019.8 0.2
15/08:00am -3.6 -7.4 -3.7 99 -0.1 S 7 7 4 4 1019.0 1019.8 0.2
15/07:37am -4.1 -8.0 -4.2 99 -0.1 SSW 7 7 4 4 1018.9 1019.7 0.2
15/07:30am -4.4 -8.1 -4.5 99 -0.1 SSW 6 7 3 4 1018.9 1019.7 0.2
15/07:26am -4.4 -8.1 -4.5 99 -0.1 SSW 6 7 3 4 1018.8 1019.5 0.2
15/07:00am -4.8 -8.7 -4.9 99 -0.2 SSW 7 9 4 5 1018.7 1019.4 0.2
15/06:43am -5.4 -9.4 -5.5 99 -0.2 S 7 7 4 4 1018.5 1019.2 0.2
15/06:30am -4.7 -8.6 -4.8 99 -0.2 S 7 9 4 5 1018.5 1019.2 0.2
15/06:29am -4.7 -8.6 -4.8 99 -0.2 S 7 9 4 5 1018.5 1019.2 0.2
15/06:00am -5.0 -8.8 -5.1 99 -0.2 S 6 7 3 4 1018.2 1018.9 0.2
15/05:35am -4.4 -8.3 -4.5 99 -0.1 SW 7 9 4 5 1017.9 1018.6 0.2
15/05:30am -4.6 -8.5 -4.7 99 -0.2 SW 7 7 4 4 1017.9 1018.6 0.2
15/05:15am -4.7 -8.6 -4.8 99 -0.2 SSW 7 7 4 4 1017.8 1018.5 0.2
15/05:12am -4.7 -8.6 -4.8 99 -0.2 SSW 7 7 4 4 1017.8 1018.5 0.2
15/05:08am -4.7 -8.4 -4.8 99 -0.2 SSW 6 7 3 4 1017.8 1018.5 0.2
15/05:00am -4.4 -8.1 -4.5 99 -0.1 SSW 6 7 3 4 1017.8 1018.5 0.2
15/04:30am -4.0 -7.8 -4.1 99 -0.1 SSW 7 7 4 4 1017.8 1018.5 0.2
15/04:00am -3.9 -7.7 -4.0 99 -0.1 SSW 7 7 4 4 1017.9 1018.6 0.2
15/03:45am -4.4 -8.3 -4.5 99 -0.1 SSW 7 9 4 5 1018.0 1018.7 0.2
15/03:30am -4.7 -8.6 -4.8 99 -0.2 SSW 7 9 4 5 1017.9 1018.6 0.2
15/03:18am -4.5 -8.4 -4.6 99 -0.1 S 7 9 4 5 1018.1 1018.8 0.2
15/03:00am -4.7 -8.6 -4.8 99 -0.2 SSW 7 9 4 5 1018.2 1018.9 0.2
15/02:58am -4.4 -8.3 -4.5 99 -0.1 SSW 7 9 4 5 1018.2 1018.9 0.2
15/02:42am -4.6 -8.5 -4.7 99 -0.2 SSW 7 7 4 4 1018.3 1019.0 0.2
15/02:30am -4.5 -8.4 -4.6 99 -0.1 SSW 7 9 4 5 1018.3 1019.0 0.2
15/02:00am -4.4 -8.3 -4.5 99 -0.1 SSW 7 7 4 4 1018.5 1019.2 0.2
15/01:30am -4.3 -8.0 -4.4 99 -0.1 SSW 6 7 3 4 1018.5 1019.2 0.2
15/01:00am -4.0 -7.8 -4.1 99 -0.1 SSW 7 9 4 5 1018.5 1019.2 0.2
15/12:30am -3.5 -7.3 -3.6 99 -0.1 SSW 7 7 4 4 1018.6 1019.3 0.2
15/12:00am -4.0 -7.8 -4.1 99 -0.1 SSE 7 7 4 4 1018.9 1019.7 0.2
 
Date/Time
EST
Temp
°C
App
Temp
°C
Dew
Point
°C
Rel
Hum
%
Delta-T
°C
Wind Press
QNH
hPa
Press
MSL
hPa
Rain since
9am
mm
Dir  Spd
km/h
Gust
km/h
Spd
kts
Gust
kts
14/11:30pm -3.1 -6.8 -3.2 99 -0.1 S 7 9 4 5 1018.9 1019.7 0.2
14/11:00pm -3.3 -7.1 -3.4 99 -0.1 SSW 7 7 4 4 1019.1 1019.9 0.2
14/10:30pm -3.0 -6.7 -3.1 99 -0.1 SSW 7 9 4 5 1019.1 1019.9 0.2
14/10:00pm -2.5 -6.0 -2.6 99 -0.1 SSW 6 7 3 4 1019.3 1020.1 0.2
14/09:30pm -2.5 -6.2 -2.6 99 -0.1 S 7 9 4 5 1019.5 1020.3 0.2
14/09:00pm -2.0 -5.0 -2.1 99 -0.1 SSW 4 6 2 3 1019.4 1020.2 0.2
14/08:30pm -1.5 -4.8 -1.6 99 0.0 S 6 6 3 3 1019.2 1020.0 0.2
14/08:00pm -1.1 -4.4 -1.2 99 0.0 SSW 6 7 3 4 1019.1 1019.9 0.2
14/07:30pm -0.4 -3.8 -0.5 99 0.0 SSW 7 7 4 4 1019.0 1019.8 0.2
14/07:00pm 0.0 -3.2 -0.3 98 0.1 S 6 7 3 4 1018.8 1019.5 0.2
14/06:30pm 0.3 -2.5 -0.4 95 0.3 W 4 7 2 4 1018.8 1019.5 0.2
14/06:00pm 1.5 -0.5 -0.4 87 0.7 CALM 0 0 0 0 1018.6 1019.3 0.2
14/05:30pm 4.3 1.4 1.2 80 1.2 WSW 6 6 3 3 1018.6 1019.3 0.2
14/05:00pm 6.7 3.8 1.2 68 2.2 WSW 6 7 3 4 1018.6 1019.3 0.2
14/04:30pm 8.5 5.1 1.9 63 2.8 WSW 9 15 5 8 1018.6 1019.3 0.2
14/04:00pm 9.2 6.5 3.8 69 2.4 NNE 7 13 4 7 1018.6 1019.3 0.2
14/03:30pm 8.4 5.8 4.4 76 1.8 N 7 11 4 6 1018.7 1019.4 0.2
14/03:00pm 8.8 6.5 4.8 76 1.8 NNW 6 9 3 5 1018.8 1019.5 0.2
14/02:30pm 8.1 5.8 4.7 79 1.5 NE 6 7 3 4 1019.0 1019.8 0.2
14/02:00pm 7.7 5.8 4.7 81 1.3 NNW 4 9 2 5 1019.3 1020.1 0.2
14/01:38pm 6.4 3.9 4.6 88 0.8 N 7 11 4 6 1019.6 1020.4 0.2
14/01:30pm 6.3 3.8 4.9 91 0.6 N 7 11 4 6 1019.6 1020.4 0.2
14/01:00pm 4.6 2.2 4.5 99 0.0 WSW 6 11 3 6 1020.1 1020.9 0.2
14/12:30pm 4.1 2.8 4.1 100 0.0 CALM 0 7 0 4 1020.6 1021.3 0.2
14/12:00pm 3.7 1.2 3.7 100 0.0 SSW 6 7 3 4 1021.0 1021.7 0.2
14/11:34am 3.4 0.8 3.4 100 0.0 NE 6 9 3 5 1021.3 1022.1 0.2
14/11:30am 3.4 1.2 3.4 100 0.0 N 4 9 2 5 1021.3 1022.1 0.2
14/11:00am 3.3 1.1 3.3 100 0.0 E 4 7 2 4 1021.7 1022.5 0.2
14/10:30am 2.4 -0.3 2.4 100 0.0 SE 6 9 3 5 1022.0 1022.8 0.2
14/10:00am 2.0 -1.0 2.0 100 0.0 E 7 9 4 5 1021.9 1022.7 0.2
14/09:30am 2.0 -1.0 2.0 100 0.0 E 7 11 4 6 1021.7 1022.5 0.2
14/09:00am 1.6 -1.5 1.6 100 0.0 SSE 7 9 4 5 1021.8 1022.6 0.2
14/08:30am 1.0 -2.2 1.0 100 0.0 SE 7 11 4 6 1021.8 1022.6 0.2
14/08:00am 0.1 -3.2 0.1 100 0.0 SSW 7 11 4 6 1021.7 1022.5 0.0
14/07:30am -0.5 -2.6 -0.5 100 0.0 CALM 0 0 0 0 1021.7 1022.5 0.0
14/07:00am -1.2 -4.1 -1.3 99 0.0 WSW 4 6 2 3 1021.5 1022.3 0.0
14/06:30am -1.6 -5.1 -1.7 99 0.0 SSW 7 11 4 6 1021.2 1022.0 0.0
14/06:00am -1.4 -5.7 -1.5 99 0.0 S 11 13 6 7 1021.0 1021.7 0.0
14/05:30am -1.2 -5.1 -1.3 99 0.0 SSW 9 11 5 6 1021.0 1021.7 0.0
14/05:00am -1.1 -5.0 -1.2 99 0.0 S 9 13 5 7 1021.0 1021.7 0.0
14/04:30am -1.1 -5.0 -1.2 99 0.0 SSW 9 11 5 6 1020.9 1021.6 0.0
14/04:00am -0.7 -4.1 -0.8 99 0.0 SSW 7 9 4 5 1020.6 1021.3 0.0
14/03:30am -0.5 -3.7 -0.5 100 0.0 SW 6 7 3 4 1020.9 1021.6 0.0
14/03:00am -0.4 -3.8 -0.5 99 0.0 S 7 7 4 4 1021.0 1021.7 0.0
14/02:30am -0.5 -3.9 -0.6 99 0.0 SSW 7 7 4 4 1021.1 1021.9 0.0
14/02:00am -0.7 -3.2 -0.8 99 0.0 SW 2 7 1 4 1021.0 1021.7 0.0
14/01:30am -1.1 -4.4 -1.2 99 0.0 SW 6 7 3 4 1021.1 1021.9 0.0
14/01:00am -1.3 -4.6 -1.4 99 0.0 S 6 7 3 4 1021.1 1021.9 0.0
14/12:30am -2.0 -5.4 -2.1 99 -0.1 S 6 7 3 4 1021.1 1021.9 0.0
14/12:00am -2.6 -6.1 -2.7 99 -0.1 SSW 6 7 3 4 1021.0 1021.7 0.0
 
Date/Time
EST
Temp
°C
App
Temp
°C
Dew
Point
°C
Rel
Hum
%
Delta-T
°C
Wind Press
QNH
hPa
Press
MSL
hPa
Rain since
9am
mm
Dir  Spd
km/h
Gust
km/h
Spd
kts
Gust
kts
13/11:30pm -3.1 -6.6 -3.2 99 -0.1 SW 6 7 3 4 1021.1 1021.9 0.0
13/11:00pm -2.7 -5.1 -2.8 99 -0.1 CALM 0 0 0 0 1021.2 1022.0 0.0
13/10:48pm -2.7 -5.1 -2.8 99 -0.1 CALM 0 0 0 0 1021.2 1022.0 0.0
13/10:30pm -2.3 -5.0 -2.4 99 -0.1 SSW 2 6 1 3 1021.1 1021.9 0.0
13/10:02pm -1.8 -4.0 -1.9 99 0.0 CALM 0 0 0 0 1021.1 1021.9 0.0
13/10:00pm -2.0 -4.3 -2.1 99 -0.1 CALM 0 0 0 0 1021.1 1021.9 0.0
13/09:57pm -1.9 -4.2 -2.0 99 -0.1 CALM 0 0 0 0 1021.2 1022.0 0.0
13/09:31pm -1.2 -4.1 -1.3 99 0.0 SSW 4 6 2 3 1021.2 1022.0 0.0
13/09:30pm -1.4 -4.4 -1.5 99 0.0 SSW 4 6 2 3 1021.2 1022.0 0.0
13/09:00pm -1.0 -3.9 -1.1 99 0.0 WSW 4 9 2 5 1021.0 1021.7 0.0
13/08:30pm -0.4 -2.5 -0.5 99 0.0 CALM 0 0 0 0 1021.0 1021.7 0.0
13/08:00pm -0.5 -2.6 -0.6 99 0.0 CALM 0 0 0 0 1020.8 1021.5 0.0
13/07:30pm 0.9 -1.0 0.8 99 0.0 CALM 0 4 0 2 1020.7 1021.4 0.0
13/07:00pm 1.1 -2.1 1.0 99 0.0 WSW 7 9 4 5 1020.5 1021.2 0.0
13/06:30pm 2.1 -0.8 1.2 94 0.4 WNW 6 7 3 4 1020.1 1020.9 0.0
13/06:00pm 4.1 2.5 2.6 90 0.6 CALM 0 0 0 0 1019.8 1020.6 0.0
13/05:30pm 6.1 4.6 3.1 81 1.3 CALM 0 2 0 1 1019.4 1020.2 0.0
13/05:00pm 7.8 4.6 3.3 73 2.0 SW 9 13 5 7 1019.3 1020.1 0.0
13/04:30pm 9.0 4.3 3.4 68 2.5 WSW 17 26 9 14 1019.2 1020.0 0.0
13/04:00pm 9.4 4.1 3.2 65 2.7 SW 20 24 11 13 1019.2 1020.0 0.0
13/03:30pm 9.7 4.3 2.6 61 3.1 WSW 20 30 11 16 1019.2 1020.0 0.0
13/03:00pm 10.0 4.8 3.3 63 3.0 WSW 20 28 11 15 1019.1 1019.9 0.0
13/02:30pm 10.5 5.4 3.1 60 3.3 WSW 19 30 10 16 1019.0 1019.8 0.0
13/02:00pm 9.7 4.2 3.9 67 2.6 WSW 22 35 12 19 1019.2 1020.0 0.0
13/01:30pm 9.3 4.2 3.9 69 2.4 SW 20 30 11 16 1019.4 1020.2 0.0
13/01:00pm 8.9 3.5 4.5 74 2.0 WSW 22 33 12 18 1019.7 1020.5 0.0
13/12:30pm 8.3 3.2 4.3 76 1.8 WSW 20 33 11 18 1019.8 1020.6 0.0
13/12:00pm 8.4 4.0 5.0 79 1.5 WSW 17 28 9 15 1020.3 1021.0 0.0
13/11:49am 7.6 3.2 4.6 81 1.3 WSW 17 24 9 13 1020.3 1021.0 0.0
13/11:30am 7.8 3.9 6.9 94 0.4 WSW 17 22 9 12 1020.6 1021.3 0.0
13/11:00am 5.6 2.9 5.6 100 0.0 NNW 9 20 5 11 1020.7 1021.4 0.0
13/10:58am 5.5 3.2 5.5 100 0.0 NE 7 20 4 11 1020.7 1021.4 0.0
13/10:30am 3.8 0.4 3.8 100 0.0 NNE 11 13 6 7 1020.8 1021.5 0.0
13/10:00am 1.5 -2.3 1.5 100 0.0 N 11 13 6 7 1020.7 1021.4 0.0
13/09:30am 0.4 -3.6 0.3 99 0.0 NNE 11 13 6 7 1020.8 1021.5 0.0
13/09:00am -0.7 -4.1 -0.8 99 0.0 NNE 7 9 4 5 1020.7 1021.4 0.4
13/08:30am -1.6 -3.8 -1.7 99 0.0 CALM 0 0 0 0 1020.6 1021.3 0.4
13/08:00am -2.1 -4.8 -2.2 99 -0.1 WSW 2 6 1 3 1020.4 1021.1 0.4
13/07:30am -2.5 -4.8 -2.6 99 -0.1 CALM 0 0 0 0 1020.3 1021.0 0.4
13/07:00am -2.1 -4.4 -2.2 99 -0.1 CALM 0 0 0 0 1019.9 1020.7 0.4

Other Formats:

Comma delimited format used in spreadsheet applications
http://www.bom.gov.au/fwo/IDN60801/IDN60801.94712.axf

JavaScript Object Notation format (JSON) in row-major order
http://www.bom.gov.au/fwo/IDN60801/IDN60801.94712.json